Time;durP1;ratioP1;P1;durP2;ratioP2;P2;SDS_P1;SDS_P2;PMS_P1;PMS_P2;Temp;Humidity;BMP_temperature;BMP_pressure;BME280_temperature;BME280_humidity;BME280_pressure;Samples;Min_cycle;Max_cycle;Signal;HPM_P1;HPM_P2
2022/01/18 00:01:52;;;;;;;6.72;2.58;;;;;;;6.14;100.00;100042.16;5014658;28;20025;-63
2022/01/18 00:04:18;;;;;;;4.57;3.13;;;;;;;5.69;100.00;99987.03;5013198;28;20026;-63
2022/01/18 00:06:48;;;;;;;4.05;2.85;;;;;;;6.04;100.00;100054.03;5013979;28;20118;-64
2022/01/18 00:09:14;;;;;;;4.95;2.80;;;;;;;6.00;100.00;100056.63;5014607;28;20447;-63
2022/01/18 00:11:51;;;;;;;5.30;3.65;;;;;;;5.36;100.00;99980.59;5013160;28;20037;-63
2022/01/18 00:14:26;;;;;;;5.50;3.30;;;;;;;5.27;100.00;99988.19;5014139;28;20467;-63
2022/01/18 00:17:16;;;;;;;5.22;3.10;;;;;;;5.71;100.00;100053.44;5012914;28;20040;-63
2022/01/18 00:19:52;;;;;;;6.78;3.58;;;;;;;5.25;100.00;100010.03;5014382;28;20030;-64
2022/01/18 00:22:18;;;;;;;4.60;3.00;;;;;;;5.15;100.00;100014.31;5013046;28;20083;-63
2022/01/18 00:24:44;;;;;;;4.88;3.35;;;;;;;5.45;100.00;100070.44;5014425;28;20030;-62
2022/01/18 00:27:13;;;;;;;4.35;3.22;;;;;;;5.40;100.00;100059.53;5014163;28;20033;-64
2022/01/18 00:29:46;;;;;;;4.82;3.83;;;;;;;5.15;100.00;100036.97;5012436;28;20455;-63
2022/01/18 00:32:27;;;;;;;5.70;4.45;;;;;;;5.00;100.00;100018.59;5014378;28;20033;-63
2022/01/18 00:34:56;;;;;;;5.20;4.03;;;;;;;5.12;100.00;100049.59;5013959;28;20029;-63
2022/01/18 00:37:36;;;;;;;5.05;3.42;;;;;;;4.92;100.00;100010.22;5014245;28;20026;-65
2022/01/18 00:40:04;;;;;;;5.00;3.50;;;;;;;5.11;100.00;100057.19;5012317;28;20432;-63
2022/01/18 00:42:29;;;;;;;4.28;3.70;;;;;;;4.88;100.00;100031.25;5013931;28;20034;-64
2022/01/18 00:44:55;;;;;;;6.63;4.63;;;;;;;4.74;100.00;100001.09;5013815;28;20029;-63
2022/01/18 00:47:20;;;;;;;5.65;3.88;;;;;;;5.09;100.00;100069.75;5012312;28;20120;-63
2022/01/18 00:49:47;;;;;;;4.53;3.28;;;;;;;4.76;100.00;100019.53;5013851;28;20022;-63
2022/01/18 00:52:17;;;;;;;5.80;3.25;;;;;;;5.06;100.00;100087.41;5014081;28;20087;-64
2022/01/18 00:54:45;;;;;;;5.40;4.18;;;;;;;4.66;100.00;100032.16;5013404;28;20057;-63
2022/01/18 00:57:11;;;;;;;7.07;4.00;;;;;;;5.03;100.00;100099.19;5012467;28;20490;-64
2022/01/18 00:59:39;;;;;;;4.55;3.70;;;;;;;4.95;100.00;100116.81;5012204;28;20310;-64
2022/01/18 01:02:05;;;;;;;7.70;4.05;;;;;;;4.96;100.00;100121.03;4794262;22;10001782;-64
2022/01/18 01:04:35;;;;;;;3.28;2.60;;;;;;;4.90;100.00;100131.13;4974419;28;20549;-63
2022/01/18 01:07:00;;;;;;;4.25;2.63;;;;;;;4.97;100.00;100147.06;4973129;28;20043;-63
2022/01/18 01:09:26;;;;;;;4.75;2.88;;;;;;;4.93;100.00;100155.47;4973132;28;20030;-63
2022/01/18 01:11:52;;;;;;;3.88;2.65;;;;;;;4.54;100.00;100090.94;4974501;28;20031;-63
2022/01/18 01:14:21;;;;;;;6.30;2.97;;;;;;;4.80;100.00;100116.88;4974169;28;20034;-63
2022/01/18 01:16:57;;;;;;;3.92;3.28;;;;;;;5.27;100.00;100136.88;4974291;28;20507;-63
2022/01/18 01:46:17;;;;;;;6.00;3.40;;;;;;;5.06;100.00;100197.41;4973455;28;20038;-65
2022/01/18 01:48:45;;;;;;;5.47;3.80;;;;;;;5.14;100.00;100193.19;4973674;28;20033;-65
2022/01/18 01:51:11;;;;;;;6.97;4.32;;;;;;;4.79;100.00;100154.66;4973675;28;20026;-66
2022/01/18 01:53:36;;;;;;;4.30;2.47;;;;;;;5.04;100.00;100151.25;4973065;28;20039;-65
2022/01/18 01:56:03;;;;;;;3.80;2.45;;;;;;;5.32;100.00;100210.78;4973464;28;20126;-65
2022/01/18 01:58:29;;;;;;;2.70;1.90;;;;;;;5.46;100.00;100185.53;4973462;28;20023;-64
2022/01/18 02:00:57;;;;;;;3.15;1.90;;;;;;;5.50;100.00;100232.56;4972915;28;20035;-65
2022/01/18 02:03:23;;;;;;;3.47;2.20;;;;;;;5.34;100.00;100233.47;4973580;28;20501;-65
2022/01/18 02:05:49;;;;;;;4.22;2.00;;;;;;;5.02;100.00;100203.31;4972167;28;20038;-65
2022/01/18 02:08:15;;;;;;;3.53;2.17;;;;;;;5.01;100.00;100197.41;4972799;28;20046;-65
2022/01/18 02:10:43;;;;;;;3.17;2.05;;;;;;;5.33;100.00;100259.53;4973288;28;20034;-64
2022/01/18 02:13:11;;;;;;;3.30;2.30;;;;;;;5.24;100.00;100252.81;4971887;28;20030;-64
2022/01/18 02:15:41;;;;;;;3.10;2.10;;;;;;;5.22;100.00;100255.34;4972627;28;20056;-65
2022/01/18 02:23:36;;;;;;;2.75;1.88;;;;;;;5.13;100.00;100293.13;4972922;28;20042;-65
2022/01/18 02:26:02;;;;;;;2.58;1.90;;;;;;;5.11;100.00;100324.22;4972527;28;20085;-63
2022/01/18 02:28:27;;;;;;;5.10;2.50;;;;;;;5.08;100.00;100324.22;4973012;28;20509;-62
2022/01/18 02:30:54;;;;;;;4.00;2.33;;;;;;;4.50;100.00;100257.88;4971546;28;20408;-65
2022/01/18 02:33:20;;;;;;;4.68;2.60;;;;;;;4.87;100.00;100336.81;4972770;28;20030;-63
2022/01/18 02:35:47;;;;;;;4.22;2.40;;;;;;;4.99;100.00;100345.19;4972538;28;20069;-62
2022/01/18 02:38:13;;;;;;;3.00;2.03;;;;;;;4.86;100.00;100366.19;4972629;28;20417;-63
2022/01/18 02:40:39;;;;;;;3.17;1.80;;;;;;;4.78;100.00;100339.31;4972537;28;20068;-63
2022/01/18 02:45:54;;;;;;;2.88;1.77;;;;;;;4.71;100.00;100313.31;4972937;28;20046;-64
2022/01/18 02:48:21;;;;;;;3.58;1.70;;;;;;;4.89;100.00;100352.78;4972042;28;20049;-63
2022/01/18 02:50:47;;;;;;;2.63;1.85;;;;;;;4.68;100.00;100337.63;4972335;28;20527;-63
2022/01/18 02:53:13;;;;;;;2.80;1.60;;;;;;;4.65;100.00;100350.22;4972549;28;20062;-63
2022/01/18 02:55:40;;;;;;;3.08;1.80;;;;;;;4.85;100.00;100398.94;4970947;28;20480;-64
2022/01/18 02:58:09;;;;;;;3.30;1.80;;;;;;;4.45;100.00;100366.94;4972255;28;20031;-63
2022/01/18 03:03:12;;;;;;;2.17;1.63;;;;;;;4.64;100.00;100401.38;4972344;28;20034;-63
2022/01/18 03:03:27;;;;;;;3.00;1.67;;;;;;;4.41;100.00;100371.13;4972242;28;20053;-63
2022/01/18 03:05:54;;;;;;;2.17;1.58;;;;;;;4.56;100.00;100403.88;4972865;28;20373;-63
2022/01/18 03:08:19;;;;;;;2.63;1.70;;;;;;;4.36;100.00;100378.66;4972023;28;20085;-63
2022/01/18 03:10:45;;;;;;;2.20;1.40;;;;;;;4.43;100.00;100403.84;4972191;28;20465;-63
2022/01/18 03:13:10;;;;;;;2.47;1.45;;;;;;;4.15;100.00;100381.09;4971833;28;20563;-63
2022/01/18 03:15:36;;;;;;;2.85;1.67;;;;;;;3.96;100.00;100383.53;4971772;28;20037;-63
2022/01/18 03:18:07;;;;;;;2.92;1.80;;;;;;;4.07;100.00;100410.41;4970259;28;20408;-62
2022/01/18 03:20:33;;;;;;;2.38;1.50;;;;;;;4.09;100.00;100425.50;4972186;28;20508;-65
2022/01/18 03:22:59;;;;;;;4.60;1.38;;;;;;;4.58;100.00;100464.31;4970775;28;20058;-63
2022/01/18 03:28:04;;;;;;;2.42;1.45;;;;;;;4.28;100.00;100468.38;4971761;28;20031;-63
2022/01/18 03:30:40;;;;;;;3.80;1.65;;;;;;;4.21;100.00;100485.94;4971195;28;20121;-62
2022/01/18 03:33:11;;;;;;;2.67;1.50;;;;;;;4.17;100.00;100492.63;4972268;28;20085;-62
2022/01/18 03:35:37;;;;;;;2.85;1.48;;;;;;;4.25;100.00;100513.66;4971680;28;20037;-65
2022/01/18 03:38:03;;;;;;;4.00;1.50;;;;;;;4.18;98.13;100524.50;4971897;28;20117;-63
2022/01/18 03:40:28;;;;;;;1.80;1.15;;;;;;;3.95;98.28;100502.53;4971757;28;20065;-63
2022/01/18 03:42:55;;;;;;;2.72;1.40;;;;;;;4.14;99.23;100550.47;4970932;28;20047;-63
2022/01/18 03:45:32;;;;;;;2.85;1.58;;;;;;;3.67;100.00;100525.78;4971844;28;20026;-62
2022/01/18 03:48:03;;;;;;;2.20;1.20;;;;;;;3.74;99.39;100510.78;4970489;28;20402;-63
2022/01/18 03:50:29;;;;;;;4.00;1.27;;;;;;;3.94;95.73;100573.81;4971794;28;20085;-64
2022/01/18 03:52:54;;;;;;;2.63;1.30;;;;;;;3.70;96.26;100545.94;4971574;28;20082;-64
2022/01/18 03:55:21;;;;;;;2.65;1.48;;;;;;;3.82;97.86;100593.81;4971184;28;20109;-63
2022/01/18 03:57:48;;;;;;;2.70;1.60;;;;;;;3.82;98.00;100596.31;4969661;28;20035;-63
2022/01/18 04:00:26;;;;;;;3.30;1.40;;;;;;;3.60;98.14;100594.44;4971566;28;20050;-64
2022/01/18 04:02:53;;;;;;;2.25;1.20;;;;;;;3.67;99.25;100609.56;4971576;28;20053;-64
2022/01/18 04:05:18;;;;;;;2.20;1.20;;;;;;;3.49;98.07;100589.28;4971584;28;20530;-64
2022/01/18 04:07:45;;;;;;;2.50;1.50;;;;;;;3.30;100.00;100579.88;4971845;28;20073;-64
2022/01/18 04:10:11;;;;;;;4.25;2.00;;;;;;;3.50;100.00;100616.97;4971095;28;20416;-63
2022/01/18 04:12:39;;;;;;;2.33;1.48;;;;;;;3.37;nan;100582.47;4970251;28;20431;-64
2022/01/18 04:15:07;;;;;;;2.30;1.30;;;;;;;3.67;98.50;100616.28;4971505;28;20058;-63
2022/01/18 04:30:47;;;;;;;10.32;6.80;;;;;;;2.65;100.00;100616.72;4971313;28;20408;-64
2022/01/18 04:33:12;;;;;;;8.68;4.10;;;;;;;2.98;100.00;100669.91;4970958;28;20033;-64
2022/01/18 04:35:38;;;;;;;10.95;6.15;;;;;;;2.75;100.00;100657.84;4971332;28;20038;-63
2022/01/18 04:38:03;;;;;;;15.85;9.00;;;;;;;2.51;100.00;100653.31;4971445;28;20031;-64
2022/01/18 04:40:29;;;;;;;17.25;9.75;;;;;;;2.72;100.00;100656.13;4972632;28;20050;-64
2022/01/18 04:50:50;;;;;;;7.75;4.40;;;;;;;3.11;100.00;100739.53;4974305;28;20412;-64
2022/01/18 04:53:16;;;;;;;6.00;3.80;;;;;;;2.80;100.00;100697.25;4974644;28;20035;-64
2022/01/18 04:55:41;;;;;;;5.72;3.15;;;;;;;2.96;100.00;100718.41;4974422;28;20471;-64
2022/01/18 04:58:07;;;;;;;4.45;2.75;;;;;;;2.99;100.00;100719.28;4974327;28;20525;-64
2022/01/18 05:00:33;;;;;;;4.63;2.58;;;;;;;3.04;100.00;100721.88;4975011;28;20039;-63
2022/01/18 05:02:58;;;;;;;5.68;2.80;;;;;;;2.57;100.00;100686.88;4974449;28;20045;-64
2022/01/18 05:05:26;;;;;;;7.22;4.05;;;;;;;2.55;100.00;100665.09;4974171;28;20061;-64
2022/01/18 05:07:53;;;;;;;6.32;2.75;;;;;;;2.96;100.00;100751.88;4974669;28;20034;-64
2022/01/18 05:10:23;;;;;;;7.40;3.10;;;;;;;2.71;100.00;100746.47;4971064;28;20031;-64
2022/01/18 05:12:51;;;;;;;11.25;6.15;;;;;;;2.51;100.00;100716.91;4973850;28;20039;-65
2022/01/18 05:23:03;;;;;;;7.10;4.40;;;;;;;2.67;100.00;100789.91;4973820;28;20026;-66
2022/01/18 05:25:29;;;;;;;6.88;4.18;;;;;;;2.43;100.00;100740.16;4972664;28;20544;-65
2022/01/18 05:27:57;;;;;;;5.72;3.60;;;;;;;2.34;100.00;100755.03;4973627;28;20027;-66
2022/01/18 05:30:22;;;;;;;7.90;4.07;;;;;;;2.47;100.00;100761.97;4973618;28;20519;-66
2022/01/18 05:32:48;;;;;;;7.63;4.38;;;;;;;2.57;100.00;100792.28;4974024;28;20062;-66
2022/01/18 05:35:13;;;;;;;6.18;2.95;;;;;;;2.20;100.00;100776.53;4972325;28;20496;-65
2022/01/18 05:37:39;;;;;;;18.13;9.95;;;;;;;2.57;100.00;100816.50;4973374;28;20441;-66
2022/01/18 05:40:05;;;;;;;18.83;10.43;;;;;;;2.54;100.00;100824.81;4973349;28;20039;-65
2022/01/18 05:42:31;;;;;;;36.72;16.35;;;;;;;2.44;100.00;100827.13;4974015;28;20038;-63
2022/01/18 05:44:56;;;;;;;19.50;10.38;;;;;;;2.65;100.00;100837.56;4973878;28;20034;-62
2022/01/18 05:47:24;;;;;;;12.15;6.88;;;;;;;2.69;100.00;100814.22;4972032;28;20031;-65
2022/01/18 05:49:49;;;;;;;10.35;5.88;;;;;;;2.74;100.00;100831.84;4972422;28;20035;-63
2022/01/18 05:52:14;;;;;;;14.13;7.75;;;;;;;2.46;100.00;100790.38;4972460;28;20034;-63
2022/01/18 05:54:40;;;;;;;9.13;4.90;;;;;;;2.71;100.00;100821.75;4971705;28;20038;-64
2022/01/18 05:57:05;;;;;;;5.78;3.67;;;;;;;2.62;100.00;100829.97;4972338;28;20460;-64
2022/01/18 05:59:36;;;;;;;4.75;2.42;;;;;;;2.61;100.00;100844.16;4973362;28;20513;-64
2022/01/18 06:02:13;;;;;;;6.40;2.90;;;;;;;2.53;100.00;100827.31;4972310;28;20038;-64
2022/01/18 06:07:23;;;;;;;13.65;7.38;;;;;;;2.57;99.35;100846.63;4972162;28;20093;-61
2022/01/18 06:09:48;;;;;;;11.73;5.88;;;;;;;2.50;98.75;100845.66;4973237;28;20470;-63
2022/01/18 06:12:13;;;;;;;8.18;4.50;;;;;;;2.71;99.96;100885.38;4972387;28;20540;-64
2022/01/18 06:14:39;;;;;;;8.85;4.78;;;;;;;2.38;100.00;100827.88;4972102;28;20031;-64
2022/01/18 06:17:04;;;;;;;10.43;5.60;;;;;;;2.37;100.00;100855.44;4970561;28;20468;-64
2022/01/18 06:19:30;;;;;;;19.67;10.98;;;;;;;3.77;95.79;100913.06;4970188;28;20074;-64
2022/01/18 06:21:55;;;;;;;53.42;26.92;;;;;;;4.78;85.09;100911.81;4971914;28;20027;-62
2022/01/18 06:24:21;;;;;;;60.45;27.50;;;;;;;5.03;79.17;100860.81;4971817;28;20031;-63
2022/01/18 06:26:46;;;;;;;24.27;13.40;;;;;;;5.39;75.19;100940.94;4971997;28;20033;-64
2022/01/18 06:29:11;;;;;;;33.45;17.92;;;;;;;5.73;72.21;100952.13;4972927;28;20483;-62
2022/01/18 06:31:37;;;;;;;39.63;20.73;;;;;;;7.01;67.40;100935.94;4972819;28;20027;-64
2022/01/18 06:34:02;;;;;;;47.20;24.20;;;;;;;5.94;67.00;100953.16;4971004;28;20478;-63
2022/01/18 06:36:28;;;;;;;10.85;8.23;;;;;;;6.25;66.68;100953.34;4972975;28;20027;-64
2022/01/18 06:38:53;;;;;;;28.10;16.25;;;;;;;8.10;60.79;100963.72;4972822;28;20027;-62
2022/01/18 06:41:19;;;;;;;52.15;28.02;;;;;;;6.11;62.48;100981.03;4972846;28;20031;-62
2022/01/18 06:43:45;;;;;;;13.43;7.88;;;;;;;7.51;61.61;100993.31;4972970;28;20066;-62
2022/01/18 06:46:10;;;;;;;39.35;20.20;;;;;;;5.43;63.58;100952.75;4972703;28;20035;-62
2022/01/18 06:48:36;;;;;;;8.25;5.40;;;;;;;5.40;66.13;100934.22;4972356;28;20038;-61
2022/01/18 06:51:01;;;;;;;34.95;20.08;;;;;;;7.18;61.36;100952.81;4972756;28;20030;-62
2022/01/18 06:53:31;;;;;;;29.92;15.82;;;;;;;6.97;58.07;100901.38;4972427;28;20023;-62
2022/01/18 06:55:57;;;;;;;26.95;13.75;;;;;;;7.22;57.28;100935.13;4972136;28;20495;-62
2022/01/18 06:58:22;;;;;;;9.77;4.97;;;;;;;7.20;56.72;100935.97;4972359;28;20026;-62
2022/01/18 07:00:47;;;;;;;5.20;2.55;;;;;;;7.56;54.69;100992.50;4972278;28;20035;-62
2022/01/18 07:03:13;;;;;;;13.38;6.50;;;;;;;8.67;55.03;100980.50;4972041;28;20046;-62
2022/01/18 07:05:39;;;;;;;36.80;19.60;;;;;;;8.40;53.43;100991.56;4972426;28;20031;-62
2022/01/18 07:08:05;;;;;;;13.57;8.25;;;;;;;8.26;55.32;101002.59;4971177;28;20470;-62
2022/01/18 07:10:31;;;;;;;21.75;13.00;;;;;;;6.83;57.40;100960.34;4970804;28;20035;-63
2022/01/18 07:12:58;;;;;;;9.35;5.35;;;;;;;8.56;55.20;100994.88;4972106;28;20026;-62
2022/01/18 07:15:23;;;;;;;7.43;4.10;;;;;;;7.83;54.68;100943.53;4972029;28;20511;-62
2022/01/18 07:17:49;;;;;;;22.48;12.93;;;;;;;7.57;55.95;100968.88;4971685;28;20026;-62
2022/01/18 07:20:14;;;;;;;11.32;7.63;;;;;;;6.96;56.80;100965.41;4971093;28;20033;-62
2022/01/18 07:22:42;;;;;;;9.15;6.03;;;;;;;5.56;59.35;101026.84;4970877;28;20062;-62
2022/01/18 07:25:13;;;;;;;13.85;8.40;;;;;;;4.15;73.98;101025.13;4972049;28;21013;-62
2022/01/18 07:27:38;;;;;;;8.75;5.15;;;;;;;4.53;75.92;101002.16;4970880;28;20405;-62
2022/01/18 07:30:04;;;;;;;13.00;6.63;;;;;;;4.72;75.92;101031.78;4972068;28;20035;-62
2022/01/18 07:32:30;;;;;;;15.10;8.93;;;;;;;4.26;78.19;100997.59;4970209;28;20133;-62
2022/01/18 07:34:57;;;;;;;7.80;4.22;;;;;;;4.76;77.57;101033.50;4971967;28;20117;-62
2022/01/18 07:37:22;;;;;;;4.78;2.55;;;;;;;4.58;75.10;100998.88;4971952;28;20034;-62
2022/01/18 07:39:52;;;;;;;4.70;2.80;;;;;;;4.59;75.61;101012.31;4972004;28;20041;-62
2022/01/18 07:42:19;;;;;;;7.43;3.15;;;;;;;5.30;72.29;101021.53;4970650;28;20386;-62
2022/01/18 07:44:45;;;;;;;9.15;6.03;;;;;;;4.78;76.72;101049.47;4971661;28;20389;-62
2022/01/18 07:47:11;;;;;;;11.43;4.50;;;;;;;4.41;77.14;101058.22;4971584;28;20117;-62
2022/01/18 07:49:36;;;;;;;8.23;5.03;;;;;;;4.75;79.29;101035.19;4971744;28;20409;-62
2022/01/18 07:52:03;;;;;;;19.60;9.63;;;;;;;4.79;76.72;101031.03;4971623;28;20027;-62
2022/01/18 07:54:28;;;;;;;23.27;11.30;;;;;;;4.92;73.60;101025.31;4971659;28;20106;-62
2022/01/18 07:56:54;;;;;;;15.20;6.30;;;;;;;4.26;76.59;101020.25;4971658;28;20557;-62
2022/01/18 07:59:20;;;;;;;5.40;3.13;;;;;;;4.78;74.98;101004.16;4971620;28;20077;-62
2022/01/18 08:01:46;;;;;;;58.78;17.73;;;;;;;4.50;75.18;101019.75;4971312;28;20389;-62
2022/01/18 08:04:12;;;;;;;189.15;52.20;;;;;;;4.84;78.47;101016.81;4971823;28;20054;-62
2022/01/18 08:06:37;;;;;;;41.30;13.15;;;;;;;3.98;79.77;100988.81;4971379;28;20050;-62
2022/01/18 08:09:03;;;;;;;18.10;8.30;;;;;;;4.96;79.90;101062.31;4971410;28;20460;-62
2022/01/18 08:11:28;;;;;;;98.30;27.38;;;;;;;4.85;78.58;101062.16;4971530;28;20039;-62
2022/01/18 08:13:54;;;;;;;10.40;4.07;;;;;;;4.23;74.68;101023.59;4971245;28;20057;-62
2022/01/18 08:18:50;;;;;;;7.03;3.78;;;;;;;4.35;77.95;100992.69;4975726;28;20046;-62
2022/01/18 08:21:15;;;;;;;64.28;18.75;;;;;;;4.49;75.41;101028.13;4975184;28;20035;-62
2022/01/18 08:23:41;;;;;;;32.05;11.73;;;;;;;4.69;78.15;101054.41;4974187;28;20023;-62
2022/01/18 08:26:06;;;;;;;19.38;7.03;;;;;;;4.69;76.97;101075.41;4975189;28;20412;-62
2022/01/18 08:28:32;;;;;;;8.90;3.47;;;;;;;4.44;76.13;101042.34;4975228;28;20481;-62
2022/01/18 08:30:57;;;;;;;31.48;11.48;;;;;;;4.64;75.75;101068.59;4974927;28;20080;-62
2022/01/18 08:33:24;;;;;;;35.95;14.07;;;;;;;4.57;77.57;101055.09;4975637;28;20027;-62
2022/01/18 08:35:50;;;;;;;20.05;6.90;;;;;;;4.55;73.79;101053.38;4974837;28;20497;-62
2022/01/18 08:38:15;;;;;;;11.38;5.30;;;;;;;4.59;76.79;101057.63;4975082;28;20034;-62
2022/01/18 08:40:41;;;;;;;78.13;27.20;;;;;;;4.53;77.47;101052.50;4973698;28;20027;-62
2022/01/18 08:43:06;;;;;;;22.33;8.50;;;;;;;4.53;77.64;101032.38;4973294;28;20029;-62
2022/01/18 08:45:32;;;;;;;30.92;10.27;;;;;;;4.87;76.64;101079.84;4974542;28;20601;-62
2022/01/18 08:47:57;;;;;;;37.10;11.18;;;;;;;4.54;77.53;101027.34;4975243;28;20054;-62
2022/01/18 08:50:23;;;;;;;170.15;43.03;;;;;;;4.86;75.10;101093.25;4974865;28;20113;-62
2022/01/18 08:52:51;;;;;;;33.95;10.85;;;;;;;4.33;74.01;101009.44;4974742;28;20092;-62
2022/01/18 08:55:18;;;;;;;12.63;4.68;;;;;;;4.86;74.05;101063.88;4974591;28;20030;-62
2022/01/18 08:57:43;;;;;;;9.77;4.35;;;;;;;4.74;72.02;101067.91;4974380;28;20034;-62
2022/01/18 09:00:10;;;;;;;11.43;4.63;;;;;;;4.68;72.35;101027.53;4974371;28;20053;-62
2022/01/18 09:02:36;;;;;;;32.85;13.20;;;;;;;4.69;72.44;101040.16;4974426;28;20051;-62
2022/01/18 09:05:03;;;;;;;11.00;5.20;;;;;;;4.52;71.05;101039.06;4974361;28;20039;-61
2022/01/18 09:07:29;;;;;;;8.20;3.90;;;;;;;4.60;75.03;101008.94;4974482;28;20073;-62
2022/01/18 09:10:03;;;;;;;16.92;7.75;;;;;;;4.96;73.46;101045.53;4974396;28;20121;-63
2022/01/18 09:12:28;;;;;;;10.15;4.05;;;;;;;5.04;76.10;101021.28;4974233;28;20035;-62
2022/01/18 09:14:54;;;;;;;6.95;3.60;;;;;;;5.10;73.31;101045.69;4974529;28;20038;-62
2022/01/18 09:17:19;;;;;;;10.13;4.88;;;;;;;5.01;73.59;101038.03;4974251;28;20027;-62
2022/01/18 09:19:45;;;;;;;11.25;5.63;;;;;;;5.06;73.45;101037.25;4974187;28;20043;-63
2022/01/18 09:22:10;;;;;;;11.68;5.25;;;;;;;5.07;74.65;101007.88;4974105;28;20030;-62
2022/01/18 09:24:36;;;;;;;6.07;2.90;;;;;;;4.91;73.36;100986.66;4974015;28;20453;-62
2022/01/18 09:27:02;;;;;;;5.80;3.05;;;;;;;5.09;72.84;101032.22;4971418;28;20477;-63
2022/01/18 09:29:29;;;;;;;6.68;2.85;;;;;;;4.91;73.75;100964.00;4973823;28;20035;-61
2022/01/18 09:31:56;;;;;;;4.97;2.10;;;;;;;4.88;69.41;100998.38;4974019;28;20405;-62
2022/01/18 09:34:22;;;;;;;6.03;3.05;;;;;;;4.98;71.11;101000.19;4973980;28;20023;-61
2022/01/18 09:36:47;;;;;;;13.07;7.28;;;;;;;4.88;71.10;100974.06;4974179;28;20093;-62
2022/01/18 09:39:13;;;;;;;5.35;2.90;;;;;;;5.27;72.25;101044.19;4973676;28;20030;-62
2022/01/18 09:41:41;;;;;;;5.65;3.42;;;;;;;5.06;71.21;100994.41;4972251;28;20714;-62
2022/01/18 09:44:08;;;;;;;6.38;3.72;;;;;;;5.36;70.80;101025.78;4972591;28;20409;-62
2022/01/18 09:46:33;;;;;;;7.85;3.72;;;;;;;4.90;71.94;100946.34;4973452;28;20088;-62
2022/01/18 09:49:00;;;;;;;5.93;3.63;;;;;;;5.41;71.13;101014.09;4973752;28;20114;-61
2022/01/18 09:51:28;;;;;;;6.85;3.50;;;;;;;5.36;69.15;101015.72;4973718;28;20093;-62
2022/01/18 09:53:54;;;;;;;7.63;3.63;;;;;;;5.56;69.84;101012.56;4973418;28;20090;-62
2022/01/18 09:56:19;;;;;;;8.82;4.10;;;;;;;5.56;68.99;100987.34;4973243;28;20548;-62
2022/01/18 09:58:45;;;;;;;9.15;4.10;;;;;;;5.49;67.80;100983.06;4973623;28;20069;-62
2022/01/18 10:01:11;;;;;;;7.40;3.40;;;;;;;5.35;69.29;100949.31;4973381;28;20134;-62
2022/01/18 10:03:38;;;;;;;4.55;2.58;;;;;;;5.28;68.04;100942.53;4973540;28;20501;-61
2022/01/18 10:06:06;;;;;;;6.55;3.47;;;;;;;5.83;68.09;100974.97;4973339;28;20034;-62
2022/01/18 10:08:33;;;;;;;6.70;2.97;;;;;;;5.84;67.63;100986.72;4973134;28;20097;-62
2022/01/18 10:11:20;;;;;;;3.95;2.45;;;;;;;6.04;64.28;100959.94;4973031;28;20034;-62
2022/01/18 10:13:49;;;;;;;5.03;2.58;;;;;;;5.63;66.62;100920.97;4972656;28;20440;-62
2022/01/18 10:16:14;;;;;;;4.15;2.60;;;;;;;6.03;64.49;100963.31;4973119;28;20480;-62
2022/01/18 10:18:51;;;;;;;5.05;2.83;;;;;;;5.99;65.01;100922.91;4973060;28;20035;-62
2022/01/18 10:21:25;;;;;;;5.72;2.70;;;;;;;5.94;62.24;100959.91;4972965;28;20023;-62
2022/01/18 10:24:08;;;;;;;8.23;3.60;;;;;;;5.88;62.10;100879.13;4973189;28;20031;-62
2022/01/18 10:26:43;;;;;;;11.45;4.15;;;;;;;5.78;60.71;100923.63;4973081;28;20067;-62
2022/01/18 10:29:09;;;;;;;9.32;4.22;;;;;;;6.04;61.20;100947.34;4972763;28;20133;-62
2022/01/18 10:32:07;;;;;;;4.75;2.60;;;;;;;5.71;60.91;100904.22;4972720;28;20041;-62
2022/01/18 10:36:53;;;;;;;4.40;2.40;;;;;;;6.31;60.79;100963.47;4972834;28;20041;-62
2022/01/18 10:39:23;;;;;;;5.90;3.15;;;;;;;6.13;59.72;100921.31;4972568;28;20027;-62
2022/01/18 10:41:49;;;;;;;5.80;3.00;;;;;;;6.45;57.33;100955.13;4972700;28;20816;-62
2022/01/18 10:44:16;;;;;;;4.88;2.83;;;;;;;6.14;57.69;100906.16;4972734;28;20061;-63
2022/01/18 10:46:48;;;;;;;7.57;3.78;;;;;;;6.72;59.20;100937.53;4972844;28;20026;-62
2022/01/18 10:49:40;;;;;;;5.18;3.22;;;;;;;7.18;58.05;100927.53;4972714;28;20041;-62
2022/01/18 10:52:10;;;;;;;5.35;3.00;;;;;;;6.61;58.36;100921.53;4971079;28;20042;-61
2022/01/18 10:54:39;;;;;;;8.57;3.92;;;;;;;6.61;58.00;100883.63;4972194;28;20560;-61
2022/01/18 10:57:06;;;;;;;9.43;3.67;;;;;;;6.69;56.81;100903.84;4972555;28;20038;-62
2022/01/18 10:59:33;;;;;;;7.20;3.00;;;;;;;6.49;57.04;100908.84;4972374;28;20038;-62
2022/01/18 11:02:19;;;;;;;8.55;3.95;;;;;;;6.77;55.35;100895.44;4972336;28;20457;-62
2022/01/18 11:04:56;;;;;;;6.65;3.40;;;;;;;6.60;55.71;100941.69;4972170;28;20521;-62
2022/01/18 11:07:24;;;;;;;6.05;3.20;;;;;;;6.85;55.38;100958.66;4972030;28;20027;-62
2022/01/18 11:09:50;;;;;;;5.57;3.20;;;;;;;6.91;55.56;100919.06;4972313;28;20121;-62
2022/01/18 11:12:18;;;;;;;6.28;2.50;;;;;;;7.25;55.37;100955.34;4972123;28;20117;-63
2022/01/18 11:14:46;;;;;;;4.35;2.70;;;;;;;7.27;54.81;100942.72;4971990;28;20441;-62
2022/01/18 11:17:21;;;;;;;6.85;3.50;;;;;;;7.29;53.17;100946.09;4971903;28;20035;-62
2022/01/18 11:19:48;;;;;;;6.05;3.60;;;;;;;7.13;52.40;100929.22;4971804;28;20054;-62
2022/01/18 11:22:14;;;;;;;6.07;3.70;;;;;;;7.73;51.87;100898.84;4972252;28;20042;-62
2022/01/18 11:24:42;;;;;;;6.75;3.95;;;;;;;7.64;53.13;100901.41;4972061;28;20037;-62
2022/01/18 11:27:12;;;;;;;6.72;3.25;;;;;;;7.19;52.82;100876.13;4972135;28;20030;-62
2022/01/18 11:29:38;;;;;;;5.85;2.72;;;;;;;7.79;52.54;100941.84;4971746;28;20034;-62
2022/01/18 11:32:04;;;;;;;4.97;3.20;;;;;;;7.56;51.54;100900.56;4970570;28;20042;-62
2022/01/18 11:34:36;;;;;;;6.45;3.15;;;;;;;7.86;50.10;100943.56;4972024;28;20037;-63
2022/01/18 11:37:34;;;;;;;5.43;3.20;;;;;;;7.80;50.96;100941.84;4971886;28;20060;-62
2022/01/18 11:40:06;;;;;;;5.35;2.42;;;;;;;7.70;50.09;100922.50;4952081;28;20125;-62
2022/01/18 11:42:38;;;;;;;;;;;;;;;8.10;50.32;100951.06;4972261;28;20050;-62
2022/01/18 11:45:25;;;;;;;13.98;9.07;;;;;;;8.22;49.92;100932.50;4972082;28;19914;-62
2022/01/18 11:48:02;;;;;;;8.10;4.10;;;;;;;8.38;50.14;100940.06;4971929;28;20184;-63
2022/01/18 11:50:30;;;;;;;7.10;2.70;;;;;;;8.22;48.51;100955.28;4970847;28;20026;-64
2022/01/18 11:53:26;;;;;;;6.90;3.53;;;;;;;7.90;48.69;100922.44;4971648;28;20516;-61
2022/01/18 11:55:57;;;;;;;9.32;4.82;;;;;;;8.17;48.63;100908.84;4971500;28;20117;-62
2022/01/18 11:58:27;;;;;;;3.20;2.08;;;;;;;8.47;48.49;100952.72;4971710;28;20027;-62
2022/01/18 12:00:58;;;;;;;9.10;5.28;;;;;;;9.10;48.41;100960.81;4970429;28;20042;-62
2022/01/18 12:03:32;;;;;;;7.25;5.00;;;;;;;8.85;48.40;100970.28;4971717;28;20057;-63
2022/01/18 12:06:03;;;;;;;3.70;2.30;;;;;;;8.04;48.10;100941.00;4971788;28;20039;-63
2022/01/18 12:08:40;;;;;;;4.30;2.50;;;;;;;7.60;48.16;100884.53;4971669;28;20034;-63
2022/01/18 12:11:10;;;;;;;5.35;2.78;;;;;;;8.17;47.64;100917.31;4971714;28;20039;-63
2022/01/18 12:13:40;;;;;;;3.90;2.50;;;;;;;8.18;48.48;100938.41;4971817;28;20066;-63
2022/01/18 12:16:21;;;;;;;8.93;5.20;;;;;;;8.25;47.97;100909.72;4970162;28;20038;-62
2022/01/18 12:18:52;;;;;;;6.30;4.00;;;;;;;8.17;47.75;100886.06;4971477;28;20515;-63
2022/01/18 12:21:22;;;;;;;5.10;3.15;;;;;;;8.32;49.30;100908.84;4970411;28;20113;-62
2022/01/18 12:23:48;;;;;;;3.38;2.30;;;;;;;8.52;49.19;100958.59;4971325;28;20034;-62
2022/01/18 12:26:42;;;;;;;6.47;3.92;;;;;;;8.80;49.14;100958.44;4971640;28;20031;-63
2022/01/18 12:29:34;;;;;;;4.47;2.50;;;;;;;8.11;48.41;100922.38;4971751;28;20027;-64
2022/01/18 12:34:34;;;;;;;6.50;3.72;;;;;;;8.36;46.03;100959.47;4971781;28;20042;-64
2022/01/18 12:37:13;;;;;;;4.93;2.80;;;;;;;8.52;47.34;100966.19;4971327;28;20031;-64
2022/01/18 12:39:54;;;;;;;3.22;2.13;;;;;;;8.31;46.52;100978.94;4971433;28;20031;-64
2022/01/18 12:45:13;;;;;;;3.15;2.10;;;;;;;8.78;47.04;100983.81;4971159;28;20039;-61
2022/01/18 12:48:14;;;;;;;5.15;3.13;;;;;;;8.78;46.65;100981.28;4971367;28;20070;-64
2022/01/18 12:50:44;;;;;;;5.88;2.70;;;;;;;8.38;47.09;100922.31;4911558;29;20040;-63
2022/01/18 12:53:14;;;;;;;7.28;2.60;;;;;;;8.31;47.84;100985.69;4960515;28;20043;-64